createdAt,value
2018-09-17T00:00:25.059Z,7.8
2018-09-17T00:01:26.633Z,7.8
2018-09-17T00:02:28.188Z,7.9
2018-09-17T00:03:29.757Z,7.8
2018-09-17T00:04:31.166Z,7.8
2018-09-17T00:05:32.397Z,7.9
2018-09-17T00:06:33.788Z,7.9
2018-09-17T00:07:35.370Z,7.9
2018-09-17T00:08:36.927Z,7.9
2018-09-17T00:09:38.491Z,7.8
2018-09-17T00:10:40.046Z,7.9
2018-09-17T00:11:41.609Z,7.9
2018-09-17T00:12:43.003Z,7.8
2018-09-17T00:13:44.570Z,7.8
2018-09-17T00:14:46.139Z,7.8
2018-09-17T00:15:47.696Z,7.8
2018-09-17T00:16:49.268Z,7.8
2018-09-17T00:17:50.837Z,7.8
2018-09-17T00:18:52.463Z,7.8
2018-09-17T00:19:53.842Z,7.8
2018-09-17T00:20:55.425Z,7.8
2018-09-17T00:21:56.988Z,7.8
2018-09-17T00:22:58.552Z,7.8
2018-09-17T00:24:00.109Z,7.8
2018-09-17T00:25:01.691Z,7.8
2018-09-17T00:26:03.249Z,7.9
2018-09-17T00:27:04.794Z,7.8
2018-09-17T00:28:06.349Z,7.8
2018-09-17T00:29:07.908Z,7.8
2018-09-17T00:30:09.287Z,7.8
2018-09-17T00:31:10.856Z,7.8
2018-09-17T00:32:12.288Z,7.8
2018-09-17T00:33:13.854Z,7.8
2018-09-17T00:34:15.444Z,7.8
2018-09-17T00:35:16.989Z,7.8
2018-09-17T00:36:18.562Z,7.8
2018-09-17T00:37:20.123Z,7.8
2018-09-17T00:38:21.517Z,7.8
2018-09-17T00:39:23.083Z,7.8
2018-09-17T00:40:24.643Z,7.8
2018-09-17T00:41:26.034Z,7.8
2018-09-17T00:42:27.596Z,7.8
2018-09-17T00:43:29.179Z,7.8
2018-09-17T00:44:30.587Z,7.8
2018-09-17T00:45:32.135Z,7.8
2018-09-17T00:46:33.697Z,7.8
2018-09-17T00:47:35.106Z,7.8
2018-09-17T00:48:36.695Z,7.8
2018-09-17T00:49:38.309Z,7.8
2018-09-17T00:50:39.866Z,7.8
2018-09-17T00:51:41.438Z,7.8
2018-09-17T00:52:43.008Z,7.8
2018-09-17T00:53:44.556Z,7.8
2018-09-17T00:54:45.949Z,7.8
2018-09-17T00:55:47.498Z,7.8
2018-09-17T00:56:49.066Z,7.8
2018-09-17T00:57:51.260Z,7.8
2018-09-17T00:58:52.836Z,7.8
2018-09-17T00:59:54.402Z,7.8
2018-09-17T01:00:55.981Z,7.8
2018-09-17T01:01:57.537Z,7.8
2018-09-17T01:02:59.087Z,7.8
2018-09-17T01:04:00.486Z,7.8
2018-09-17T01:05:01.895Z,7.8
2018-09-17T01:06:03.474Z,7.8
2018-09-17T01:07:04.877Z,7.8
2018-09-17T01:08:06.477Z,7.8
2018-09-17T01:09:08.031Z,7.8
2018-09-17T01:10:09.597Z,7.8
2018-09-17T01:11:11.145Z,7.8
2018-09-17T01:12:12.709Z,7.8
2018-09-17T01:13:14.286Z,7.8
2018-09-17T01:14:15.834Z,7.8
2018-09-17T01:15:17.404Z,7.8
2018-09-17T01:16:18.974Z,7.8
2018-09-17T01:17:20.521Z,7.8
2018-09-17T01:18:22.083Z,7.8
2018-09-17T01:19:23.636Z,7.8
2018-09-17T01:20:25.024Z,7.8
2018-09-17T01:21:27.137Z,7.8
2018-09-17T01:22:28.686Z,7.8
2018-09-17T01:23:30.247Z,7.8
2018-09-17T01:24:31.795Z,7.7
2018-09-17T01:25:33.353Z,7.7
2018-09-17T01:26:34.907Z,7.6
2018-09-17T01:27:36.515Z,7.5
2018-09-17T01:28:38.085Z,7.4
2018-09-17T01:29:39.642Z,7.3
2018-09-17T01:30:41.218Z,7.2
2018-09-17T01:31:42.800Z,7.2
2018-09-17T01:32:44.359Z,7.2
2018-09-17T01:33:45.587Z,7.2
2018-09-17T01:34:47.164Z,7.2
2018-09-17T01:35:48.706Z,7.2
2018-09-17T01:36:50.256Z,7.2
2018-09-17T01:37:51.817Z,7.2
2018-09-17T01:38:53.397Z,7.2
2018-09-17T01:39:54.956Z,7.2
2018-09-17T01:40:56.356Z,7.2
2018-09-17T01:41:57.910Z,7.2
2018-09-17T01:42:59.465Z,7.2
2018-09-17T01:44:00.855Z,7.2
2018-09-17T01:45:02.423Z,7.2
2018-09-17T01:46:04.268Z,7.2
2018-09-17T01:47:05.832Z,7.2
2018-09-17T01:48:07.398Z,7.2
2018-09-17T01:49:08.971Z,7.2
2018-09-17T01:50:10.552Z,7.2
2018-09-17T01:51:12.129Z,7.2
2018-09-17T01:52:13.685Z,7.2
2018-09-17T01:53:15.254Z,7.2
2018-09-17T01:54:16.819Z,7.2
2018-09-17T01:55:18.383Z,7.2
2018-09-17T01:56:19.937Z,7.2
2018-09-17T01:57:21.493Z,7.2
2018-09-17T01:58:22.895Z,7.2
2018-09-17T01:59:24.497Z,7.2
2018-09-17T02:00:26.043Z,7.2
2018-09-17T02:01:27.612Z,7.2
2018-09-17T02:02:29.037Z,7.2
2018-09-17T02:03:30.595Z,7.2
2018-09-17T02:04:32.157Z,7.2
2018-09-17T02:05:33.728Z,7.2
2018-09-17T02:06:35.296Z,7.2
2018-09-17T02:07:36.853Z,7.2
2018-09-17T02:08:38.927Z,7.2
2018-09-17T02:09:40.387Z,7.2
2018-09-17T02:10:41.799Z,7.2
2018-09-17T02:11:43.215Z,7.2
2018-09-17T02:12:44.793Z,7.3
2018-09-17T02:13:46.341Z,7.3
2018-09-17T02:14:47.886Z,7.3
2018-09-17T02:15:49.296Z,7.3
2018-09-17T02:16:50.872Z,7.3
2018-09-17T02:17:52.261Z,7.4
2018-09-17T02:18:53.809Z,7.4
2018-09-17T02:19:55.377Z,7.4
2018-09-17T02:20:56.936Z,7.5
2018-09-17T02:21:58.490Z,7.5
2018-09-17T02:23:00.057Z,7.5
2018-09-17T02:24:01.636Z,7.6
2018-09-17T02:25:03.217Z,7.6
2018-09-17T02:26:04.605Z,7.7
2018-09-17T02:27:06.171Z,7.7
2018-09-17T02:28:07.742Z,7.8
2018-09-17T02:29:09.133Z,7.8
2018-09-17T02:30:10.708Z,7.8
2018-09-17T02:31:12.281Z,7.8
2018-09-17T02:32:13.836Z,7.9
2018-09-17T02:33:15.385Z,7.9
2018-09-17T02:34:16.968Z,7.9
2018-09-17T02:35:18.357Z,7.9
2018-09-17T02:36:19.754Z,7.9
2018-09-17T02:37:21.149Z,7.9
2018-09-17T02:38:22.748Z,7.9
2018-09-17T02:39:24.340Z,7.9
2018-09-17T02:40:25.913Z,7.9
2018-09-17T02:41:27.330Z,7.9
2018-09-17T02:42:28.883Z,7.9
2018-09-17T02:43:30.307Z,7.9
2018-09-17T02:44:31.880Z,7.9
2018-09-17T02:45:33.265Z,7.9
2018-09-17T02:46:34.817Z,7.9
2018-09-17T02:47:36.390Z,7.9
2018-09-17T02:48:38.117Z,7.9
2018-09-17T02:49:39.685Z,7.9
2018-09-17T02:50:41.230Z,7.9
2018-09-17T02:51:42.652Z,7.8
2018-09-17T02:52:44.214Z,7.8
2018-09-17T02:53:46.264Z,7.8
2018-09-17T02:54:47.822Z,7.8
2018-09-17T02:55:49.390Z,7.8
2018-09-17T02:56:50.959Z,7.8
2018-09-17T02:57:52.370Z,7.9
2018-09-17T02:58:53.791Z,7.9
2018-09-17T02:59:55.353Z,7.9
2018-09-17T03:00:56.750Z,7.9
2018-09-17T03:01:58.315Z,7.9
2018-09-17T03:02:59.875Z,7.9
2018-09-17T03:04:01.496Z,7.9
2018-09-17T03:05:03.077Z,7.9
2018-09-17T03:06:04.636Z,7.9
2018-09-17T03:07:06.210Z,7.9
2018-09-17T03:08:07.783Z,7.9
2018-09-17T03:09:09.335Z,7.9
2018-09-17T03:10:10.917Z,7.9
2018-09-17T03:11:12.497Z,7.9
2018-09-17T03:12:14.076Z,7.9
2018-09-17T03:13:15.628Z,7.9
2018-09-17T03:14:17.179Z,7.9
2018-09-17T03:15:18.732Z,7.9
2018-09-17T03:16:20.284Z,7.9
2018-09-17T03:17:21.854Z,7.9
2018-09-17T03:18:23.427Z,7.9
2018-09-17T03:19:25.006Z,7.9
2018-09-17T03:20:26.568Z,7.9
2018-09-17T03:21:28.119Z,7.9
2018-09-17T03:22:29.672Z,7.9
2018-09-17T03:23:31.230Z,7.9
2018-09-17T03:24:33.140Z,7.9
2018-09-17T03:25:34.747Z,7.9
2018-09-17T03:26:36.366Z,7.9
2018-09-17T03:27:37.921Z,7.8
2018-09-17T03:28:39.487Z,7.8
2018-09-17T03:29:41.038Z,7.8
2018-09-17T03:30:42.458Z,7.7
2018-09-17T03:31:44.025Z,7.7
2018-09-17T03:32:45.419Z,7.6
2018-09-17T03:33:47.017Z,7.5
2018-09-17T03:34:48.587Z,7.4
2018-09-17T03:35:50.175Z,7.2
2018-09-17T03:36:51.762Z,7.2
2018-09-17T03:37:53.317Z,7.2
2018-09-17T03:38:54.883Z,7.2
2018-09-17T03:39:56.446Z,7.2
2018-09-17T03:40:58.036Z,7.2
2018-09-17T03:41:59.445Z,7.2
2018-09-17T03:43:00.985Z,7.2
2018-09-17T03:44:02.567Z,7.2
2018-09-17T03:45:03.986Z,7.2
2018-09-17T03:46:05.778Z,7.2
2018-09-17T03:47:07.349Z,7.2
2018-09-17T03:48:08.907Z,7.2
2018-09-17T03:49:10.464Z,7.2
2018-09-17T03:50:12.022Z,7.2
2018-09-17T03:51:13.595Z,7.2
2018-09-17T03:52:15.170Z,7.2
2018-09-17T03:53:17.651Z,7.2
2018-09-17T03:54:19.410Z,7.2
2018-09-17T03:55:21.016Z,7.2
2018-09-17T03:56:22.448Z,7.2
2018-09-17T03:57:24.059Z,7.2
2018-09-17T03:58:25.696Z,7.2
2018-09-17T03:59:27.272Z,7.2
2018-09-17T04:00:28.851Z,7.2
2018-09-17T04:01:30.415Z,7.2
2018-09-17T04:02:31.979Z,7.2
2018-09-17T04:03:33.546Z,7.2
2018-09-17T04:04:35.096Z,7.2
2018-09-17T04:05:36.667Z,7.2
2018-09-17T04:06:38.052Z,7.2
2018-09-17T04:07:39.594Z,7.3
2018-09-17T04:08:41.156Z,7.3
2018-09-17T04:09:42.694Z,7.3
2018-09-17T04:10:44.256Z,7.3
2018-09-17T04:11:45.646Z,7.4
2018-09-17T04:12:47.208Z,7.4
2018-09-17T04:13:48.776Z,7.4
2018-09-17T04:14:50.168Z,7.4
2018-09-17T04:15:51.582Z,7.5
2018-09-17T04:16:53.154Z,7.5
2018-09-17T04:17:54.709Z,7.5
2018-09-17T04:18:56.255Z,7.6
2018-09-17T04:19:57.814Z,7.6
2018-09-17T04:20:59.377Z,7.6
2018-09-17T04:22:00.929Z,7.7
2018-09-17T04:23:02.507Z,7.7
2018-09-17T04:24:03.907Z,7.7
2018-09-17T04:25:05.671Z,7.7
2018-09-17T04:26:07.275Z,7.8
2018-09-17T04:27:08.835Z,7.8
2018-09-17T04:28:10.394Z,7.8
2018-09-17T04:29:11.963Z,7.8
2018-09-17T04:30:13.210Z,7.8
2018-09-17T04:31:14.665Z,7.9
2018-09-17T04:32:16.245Z,7.8
2018-09-17T04:33:17.824Z,7.9
2018-09-17T04:34:19.386Z,7.9
2018-09-17T04:35:20.976Z,7.9
2018-09-17T04:36:22.387Z,7.9
2018-09-17T04:37:23.948Z,7.9
2018-09-17T04:38:25.528Z,7.9
2018-09-17T04:39:27.077Z,7.9
2018-09-17T04:40:28.637Z,7.9
2018-09-17T04:41:30.193Z,7.9
2018-09-17T04:42:31.590Z,7.9
2018-09-17T04:43:33.160Z,7.9
2018-09-17T04:44:34.550Z,7.9
2018-09-17T04:45:36.113Z,7.9
2018-09-17T04:46:37.687Z,7.9
2018-09-17T04:47:39.096Z,7.9
2018-09-17T04:48:40.657Z,7.9
2018-09-17T04:49:42.216Z,7.9
2018-09-17T04:50:43.770Z,7.9
2018-09-17T04:51:45.337Z,7.9
2018-09-17T04:52:46.752Z,7.9
2018-09-17T04:53:48.309Z,7.9
2018-09-17T04:54:49.878Z,7.9
2018-09-17T04:55:51.447Z,7.9
2018-09-17T04:56:52.834Z,7.9
2018-09-17T04:57:54.408Z,7.9
2018-09-17T04:58:55.966Z,7.9
2018-09-17T04:59:57.514Z,7.9
2018-09-17T05:00:59.077Z,7.9
2018-09-17T05:02:00.655Z,7.9
2018-09-17T05:03:02.211Z,7.9
2018-09-17T05:04:03.792Z,7.9
2018-09-17T05:05:05.356Z,7.9
2018-09-17T05:06:38.854Z,7.9
2018-09-17T05:07:40.417Z,7.9
2018-09-17T05:08:41.993Z,7.9
2018-09-17T05:09:43.386Z,7.9
2018-09-17T05:10:44.943Z,7.9
2018-09-17T05:11:46.534Z,7.9
2018-09-17T05:12:48.099Z,7.9
2018-09-17T05:13:49.676Z,7.9
2018-09-17T05:14:51.235Z,7.9
2018-09-17T05:15:52.810Z,7.9
2018-09-17T05:16:54.386Z,7.9
2018-09-17T05:17:55.949Z,7.9
2018-09-17T05:18:57.532Z,7.9
2018-09-17T05:19:59.087Z,7.9
2018-09-17T05:21:00.669Z,7.9
2018-09-17T05:22:02.226Z,7.9
2018-09-17T05:23:03.809Z,7.9
2018-09-17T05:24:05.387Z,7.8
2018-09-17T05:25:06.940Z,7.8
2018-09-17T05:26:08.190Z,7.8
2018-09-17T05:27:09.780Z,7.7
2018-09-17T05:28:11.181Z,7.6
2018-09-17T05:29:12.578Z,7.5
2018-09-17T05:30:14.131Z,7.4
2018-09-17T05:31:15.696Z,7.3
2018-09-17T05:32:17.274Z,7.2
2018-09-17T05:33:18.851Z,7.2
2018-09-17T05:34:20.455Z,7.2
2018-09-17T05:35:22.040Z,7.2
2018-09-17T05:36:23.444Z,7.2
2018-09-17T05:37:25.008Z,7.2
2018-09-17T05:38:26.571Z,7.2
2018-09-17T05:39:28.143Z,7.2
2018-09-17T05:40:29.697Z,7.2
2018-09-17T05:41:31.410Z,7.2
2018-09-17T05:42:33.133Z,7.2
2018-09-17T05:43:34.693Z,7.2
2018-09-17T05:44:36.492Z,7.2
2018-09-17T05:45:38.069Z,7.2
2018-09-17T05:46:39.636Z,7.2
2018-09-17T05:47:41.213Z,7.2
2018-09-17T05:48:42.780Z,7.2
2018-09-17T05:49:44.334Z,7.2
2018-09-17T05:50:45.891Z,7.2
2018-09-17T05:51:47.469Z,7.2
2018-09-17T05:52:49.048Z,7.2
2018-09-17T05:53:51.002Z,7.2
2018-09-17T05:54:52.600Z,7.2
2018-09-17T05:55:54.157Z,7.2
2018-09-17T05:56:55.546Z,7.2
2018-09-17T05:57:57.127Z,7.2
2018-09-17T05:58:58.682Z,7.2
2018-09-17T06:00:00.378Z,7.2
2018-09-17T06:01:02.066Z,7.2
2018-09-17T06:02:03.771Z,7.2
2018-09-17T06:03:05.216Z,7.2
2018-09-17T06:04:06.834Z,7.3
2018-09-17T06:05:08.417Z,7.3
2018-09-17T06:06:10.898Z,7.3
2018-09-17T06:07:13.007Z,7.3
2018-09-17T06:08:14.598Z,7.4
2018-09-17T06:09:16.155Z,7.4
2018-09-17T06:10:17.778Z,7.4
2018-09-17T06:11:19.765Z,7.5
2018-09-17T06:12:21.357Z,7.5
2018-09-17T06:13:22.921Z,7.5
2018-09-17T06:14:24.680Z,7.6
2018-09-17T06:15:26.336Z,7.6
2018-09-17T06:16:27.887Z,7.6
2018-09-17T06:17:30.171Z,7.7
2018-09-17T06:18:31.841Z,7.7
2018-09-17T06:19:33.233Z,7.7
2018-09-17T06:20:34.640Z,7.8
2018-09-17T06:21:36.043Z,7.8
2018-09-17T06:22:37.610Z,7.8
2018-09-17T06:23:39.215Z,7.8
2018-09-17T06:24:40.769Z,7.8
2018-09-17T06:25:42.347Z,7.9
2018-09-17T06:26:44.237Z,7.9
2018-09-17T06:27:45.647Z,7.9
2018-09-17T06:28:47.964Z,7.9
2018-09-17T06:29:49.570Z,7.9
2018-09-17T06:30:51.136Z,7.9
2018-09-17T06:31:52.705Z,7.9
2018-09-17T06:32:54.138Z,7.9
2018-09-17T06:33:55.701Z,7.9
2018-09-17T06:34:57.267Z,7.9
2018-09-17T06:35:58.838Z,7.9
2018-09-17T06:37:00.415Z,7.9
2018-09-17T06:38:01.844Z,7.9
2018-09-17T06:39:03.294Z,7.9
2018-09-17T06:40:04.866Z,7.9
2018-09-17T06:41:06.437Z,7.9
2018-09-17T06:42:07.989Z,7.9
2018-09-17T06:43:09.811Z,7.9
2018-09-17T06:44:11.213Z,7.9
2018-09-17T06:45:12.797Z,7.9
2018-09-17T06:46:14.367Z,7.9
2018-09-17T06:47:15.755Z,7.9
2018-09-17T06:48:17.369Z,7.9
2018-09-17T06:49:18.916Z,7.9
2018-09-17T06:50:20.479Z,7.9
2018-09-17T06:51:22.348Z,7.9
2018-09-17T06:52:23.945Z,7.9
2018-09-17T06:53:25.541Z,7.9
2018-09-17T06:54:26.968Z,7.9
2018-09-17T06:55:28.551Z,7.9
2018-09-17T06:56:30.122Z,7.9
2018-09-17T06:57:31.681Z,7.9
2018-09-17T06:58:33.225Z,7.9
2018-09-17T06:59:34.797Z,7.9
2018-09-17T07:00:36.381Z,7.9
2018-09-17T07:01:37.796Z,7.9
2018-09-17T07:02:39.360Z,7.9
2018-09-17T07:03:40.941Z,7.9
2018-09-17T07:04:42.502Z,7.9
2018-09-17T07:05:44.050Z,7.9
2018-09-17T07:06:45.625Z,7.9
2018-09-17T07:07:47.204Z,7.8
2018-09-17T07:08:48.765Z,7.8
2018-09-17T07:09:50.327Z,7.8
2018-09-17T07:10:51.906Z,7.8
2018-09-17T07:11:53.464Z,7.8
2018-09-17T07:12:55.028Z,7.8
2018-09-17T07:13:56.589Z,7.8
2018-09-17T07:14:58.091Z,7.8
2018-09-17T07:15:59.638Z,7.8
2018-09-17T07:17:01.227Z,7.7
2018-09-17T07:18:03.044Z,7.7
2018-09-17T07:19:04.687Z,7.6
2018-09-17T07:20:06.249Z,7.5
2018-09-17T07:21:07.805Z,7.4
2018-09-17T07:22:09.377Z,7.3
2018-09-17T07:23:10.936Z,7.2
2018-09-17T07:24:12.513Z,7.2
2018-09-17T07:25:14.392Z,7.2
2018-09-17T07:26:15.965Z,7.2
2018-09-17T07:27:17.528Z,7.2
2018-09-17T07:28:19.099Z,7.2
2018-09-17T07:29:20.681Z,7.2
2018-09-17T07:30:22.258Z,7.2
2018-09-17T07:31:23.651Z,7.2
2018-09-17T07:32:25.215Z,7.2
2018-09-17T07:33:26.793Z,7.2
2018-09-17T07:34:28.350Z,7.2
2018-09-17T07:35:29.913Z,7.2
2018-09-17T07:36:32.368Z,7.2
2018-09-17T07:37:33.951Z,7.2
2018-09-17T07:38:35.517Z,7.2
2018-09-17T07:39:37.107Z,7.2
2018-09-17T07:40:38.362Z,7.2
2018-09-17T07:41:39.960Z,7.2
2018-09-17T07:42:41.578Z,7.2
2018-09-17T07:43:43.165Z,7.2
2018-09-17T07:44:44.743Z,7.2
2018-09-17T07:45:46.303Z,7.2
2018-09-17T07:46:47.940Z,7.2
2018-09-17T07:47:49.797Z,7.2
2018-09-17T07:48:51.409Z,7.2
2018-09-17T07:49:52.967Z,7.2
2018-09-17T07:50:54.568Z,7.2
2018-09-17T07:51:56.176Z,7.2
2018-09-17T07:52:58.293Z,7.2
2018-09-17T07:53:59.881Z,7.2
2018-09-17T07:55:01.478Z,7.2
2018-09-17T07:56:03.052Z,7.2
2018-09-17T07:57:04.621Z,7.2
2018-09-17T07:58:06.192Z,7.2
2018-09-17T07:59:07.758Z,7.2
2018-09-17T08:00:09.454Z,7.2
2018-09-17T08:01:11.118Z,7.2
2018-09-17T08:02:12.688Z,7.2
2018-09-17T08:03:14.272Z,7.2
2018-09-17T08:04:15.840Z,7.2
2018-09-17T08:05:17.254Z,7.2
2018-09-17T08:06:18.813Z,7.2
2018-09-17T08:07:20.387Z,7.3
2018-09-17T08:08:21.962Z,7.3
2018-09-17T08:09:23.533Z,7.3
2018-09-17T08:10:25.113Z,7.3
2018-09-17T08:11:26.694Z,7.3
2018-09-17T08:12:28.260Z,7.3
2018-09-17T08:13:29.830Z,7.3
2018-09-17T08:14:31.404Z,7.3
2018-09-17T08:15:32.987Z,7.4
2018-09-17T08:16:34.560Z,7.4
2018-09-17T08:17:36.135Z,7.4
2018-09-17T08:18:37.707Z,7.5
2018-09-17T08:19:39.632Z,7.5
2018-09-17T08:20:41.092Z,7.6
2018-09-17T08:21:42.668Z,7.6
2018-09-17T08:22:44.240Z,7.6
2018-09-17T08:23:45.801Z,7.7
2018-09-17T08:24:47.362Z,7.7
2018-09-17T08:25:48.949Z,7.7
2018-09-17T08:26:50.557Z,7.8
2018-09-17T08:27:52.120Z,7.8
2018-09-17T08:28:53.526Z,7.8
2018-09-17T08:29:55.130Z,7.8
2018-09-17T08:30:56.557Z,7.8
2018-09-17T08:31:58.109Z,7.8
2018-09-17T08:32:59.677Z,7.8
2018-09-17T08:34:01.241Z,7.9
2018-09-17T08:35:02.810Z,7.9
2018-09-17T08:36:04.374Z,7.9
2018-09-17T08:37:05.942Z,7.9
2018-09-17T08:38:07.708Z,7.9
2018-09-17T08:39:09.284Z,7.9
2018-09-17T08:40:10.858Z,7.9
2018-09-17T08:41:12.429Z,7.9
2018-09-17T08:42:13.837Z,7.9
2018-09-17T08:43:15.437Z,7.8
2018-09-17T08:44:17.006Z,7.8
2018-09-17T08:45:18.589Z,7.9
2018-09-17T08:46:19.999Z,7.9
2018-09-17T08:47:21.410Z,7.9
2018-09-17T08:48:22.985Z,7.9
2018-09-17T08:49:24.580Z,7.8
2018-09-17T08:50:26.316Z,7.9
2018-09-17T08:51:28.094Z,7.9
2018-09-17T08:52:29.699Z,7.9
2018-09-17T08:53:31.267Z,7.9
2018-09-17T08:54:32.848Z,7.9
2018-09-17T08:55:34.447Z,7.9
2018-09-17T08:56:35.996Z,7.9
2018-09-17T08:57:37.591Z,7.9
2018-09-17T08:58:39.177Z,7.9
2018-09-17T08:59:40.742Z,7.9
2018-09-17T09:00:42.313Z,7.9
2018-09-17T09:01:43.906Z,7.8
2018-09-17T09:02:45.297Z,7.8
2018-09-17T09:03:46.697Z,7.8
2018-09-17T09:04:48.286Z,7.8
2018-09-17T09:05:49.852Z,7.9
2018-09-17T09:06:51.267Z,7.9
2018-09-17T09:07:52.832Z,7.9
2018-09-17T09:08:54.402Z,7.8
2018-09-17T09:09:55.965Z,7.8
2018-09-17T09:10:57.368Z,7.8
2018-09-17T09:11:58.940Z,7.8
2018-09-17T09:13:00.552Z,7.7
2018-09-17T09:14:02.156Z,7.7
2018-09-17T09:15:03.723Z,7.6
2018-09-17T09:16:05.302Z,7.5
2018-09-17T09:17:06.868Z,7.4
2018-09-17T09:18:08.448Z,7.3
2018-09-17T09:19:10.048Z,7.2
2018-09-17T09:20:11.652Z,7.2
2018-09-17T09:21:13.219Z,7.2
2018-09-17T09:22:14.619Z,7.2
2018-09-17T09:23:16.027Z,7.2
2018-09-17T09:24:17.599Z,7.2
2018-09-17T09:25:19.165Z,7.2
2018-09-17T09:26:21.278Z,7.2
2018-09-17T09:27:22.908Z,7.2
2018-09-17T09:28:24.487Z,7.2
2018-09-17T09:29:26.115Z,7.2
2018-09-17T09:30:27.693Z,7.2
2018-09-17T09:31:29.297Z,7.2
2018-09-17T09:32:30.851Z,7.2
2018-09-17T09:33:32.419Z,7.2
2018-09-17T09:34:33.830Z,7.2
2018-09-17T09:35:35.388Z,7.2
2018-09-17T09:36:36.947Z,7.2
2018-09-17T09:37:38.520Z,7.2
2018-09-17T09:38:40.077Z,7.2
2018-09-17T09:39:41.649Z,7.2
2018-09-17T09:40:43.260Z,7.2
2018-09-17T09:41:44.820Z,7.2
2018-09-17T09:42:46.396Z,7.2
2018-09-17T09:43:47.958Z,7.2
2018-09-17T09:44:49.527Z,7.2
2018-09-17T09:45:51.105Z,7.2
2018-09-17T09:46:52.544Z,7.2
2018-09-17T09:47:54.112Z,7.2
2018-09-17T09:48:55.520Z,7.2
2018-09-17T09:49:57.081Z,7.2
2018-09-17T09:50:58.502Z,7.2
2018-09-17T09:52:00.086Z,7.2
2018-09-17T09:53:01.640Z,7.3
2018-09-17T09:54:03.198Z,7.3
2018-09-17T09:55:04.778Z,7.3
2018-09-17T09:56:06.348Z,7.3
2018-09-17T09:57:07.917Z,7.3
2018-09-17T09:58:09.506Z,7.3
2018-09-17T09:59:11.066Z,7.3
2018-09-17T10:00:12.647Z,7.4
2018-09-17T10:01:14.262Z,7.4
2018-09-17T10:02:15.833Z,7.4
2018-09-17T10:03:17.399Z,7.4
2018-09-17T10:04:18.962Z,7.4
2018-09-17T10:05:20.533Z,7.5
2018-09-17T10:06:22.128Z,7.5
2018-09-17T10:07:23.712Z,7.5
2018-09-17T10:08:25.268Z,7.5
2018-09-17T10:09:26.839Z,7.6
2018-09-17T10:10:28.403Z,7.6
2018-09-17T10:11:30.161Z,7.6
2018-09-17T10:12:31.757Z,7.7
2018-09-17T10:13:33.328Z,7.7
2018-09-17T10:14:34.900Z,7.7
2018-09-17T10:15:36.497Z,7.8
2018-09-17T10:16:38.066Z,7.8
2018-09-17T10:17:39.610Z,7.8
2018-09-17T10:18:41.172Z,7.8
2018-09-17T10:19:42.612Z,7.8
2018-09-17T10:20:44.207Z,7.8
2018-09-17T10:21:45.774Z,7.8
2018-09-17T10:22:47.332Z,7.8
2018-09-17T10:23:48.898Z,7.8
2018-09-17T10:24:50.450Z,7.8
2018-09-17T10:25:52.022Z,7.8
2018-09-17T10:26:53.597Z,7.8
2018-09-17T10:27:55.144Z,7.8
2018-09-17T10:30:06.122Z,7.8
2018-09-17T10:31:07.706Z,7.8
2018-09-17T10:32:09.277Z,7.9
2018-09-17T10:33:10.847Z,7.9
2018-09-17T10:34:12.456Z,7.9
2018-09-17T10:35:13.860Z,7.9
2018-09-17T10:36:15.285Z,7.9
2018-09-17T10:37:16.837Z,7.9
2018-09-17T10:38:18.403Z,7.9
2018-09-17T10:39:19.976Z,7.9
2018-09-17T10:40:21.562Z,7.8
2018-09-17T10:41:23.158Z,7.9
2018-09-17T10:42:24.781Z,7.8
2018-09-17T10:43:26.188Z,7.8
2018-09-17T10:44:27.752Z,7.8
2018-09-17T10:45:29.316Z,7.8
2018-09-17T10:46:30.881Z,7.8
2018-09-17T10:47:32.451Z,7.8
2018-09-17T10:48:34.031Z,7.8
2018-09-17T10:49:35.613Z,7.8
2018-09-17T10:50:37.187Z,7.8
2018-09-17T10:51:38.787Z,7.8
2018-09-17T10:52:40.367Z,7.8
2018-09-17T10:53:41.948Z,7.8
2018-09-17T10:54:43.354Z,7.8
2018-09-17T10:55:44.928Z,7.8
2018-09-17T10:56:46.516Z,7.9
2018-09-17T10:57:47.943Z,7.8
2018-09-17T10:58:49.508Z,7.8
2018-09-17T10:59:50.920Z,7.8
2018-09-17T11:00:52.487Z,7.8
2018-09-17T11:01:54.113Z,7.7
2018-09-17T11:02:55.692Z,7.7
2018-09-17T11:03:57.367Z,7.6
2018-09-17T11:04:58.764Z,7.6
2018-09-17T11:06:00.357Z,7.5
2018-09-17T11:07:01.769Z,7.4
2018-09-17T11:08:03.348Z,7.3
2018-09-17T11:09:04.933Z,7.2
2018-09-17T11:10:06.517Z,7.2
2018-09-17T11:11:08.252Z,7.2
2018-09-17T11:12:09.868Z,7.2
2018-09-17T11:13:11.427Z,7.2
2018-09-17T11:14:12.653Z,7.2
2018-09-17T11:15:14.208Z,7.2
2018-09-17T11:16:15.787Z,7.2
2018-09-17T11:17:17.941Z,7.2
2018-09-17T11:18:19.282Z,7.2
2018-09-17T11:19:20.872Z,7.2
2018-09-17T11:20:22.433Z,7.2
2018-09-17T11:21:23.989Z,7.2
2018-09-17T11:22:25.571Z,7.2
2018-09-17T11:23:27.128Z,7.2
2018-09-17T11:24:28.708Z,7.2
2018-09-17T11:25:30.299Z,7.2
2018-09-17T11:26:31.880Z,7.2
2018-09-17T11:27:33.281Z,7.2
2018-09-17T11:28:34.842Z,7.2
2018-09-17T11:29:36.402Z,7.2
2018-09-17T11:30:37.984Z,7.2
2018-09-17T11:31:39.380Z,7.2
2018-09-17T11:32:40.940Z,7.2
2018-09-17T11:33:42.365Z,7.2
2018-09-17T11:34:43.787Z,7.2
2018-09-17T11:35:45.328Z,7.2
2018-09-17T11:36:46.894Z,7.2
2018-09-17T11:37:48.453Z,7.2
2018-09-17T11:38:50.028Z,7.2
2018-09-17T11:39:51.426Z,7.3
2018-09-17T11:40:52.837Z,7.3
2018-09-17T11:41:54.419Z,7.3
2018-09-17T11:42:55.984Z,7.3
2018-09-17T11:43:57.549Z,7.3
2018-09-17T11:44:59.127Z,7.3
2018-09-17T11:46:00.644Z,7.4
2018-09-17T11:47:02.601Z,7.4
2018-09-17T11:48:04.258Z,7.4
2018-09-17T11:49:05.909Z,7.4
2018-09-17T11:50:07.501Z,7.5
2018-09-17T11:51:09.072Z,7.5
2018-09-17T11:52:10.663Z,7.5
2018-09-17T11:53:12.277Z,7.6
2018-09-17T11:54:13.858Z,7.6
2018-09-17T11:55:15.415Z,7.6
2018-09-17T11:56:17.011Z,7.7
2018-09-17T11:57:18.804Z,7.7
2018-09-17T11:58:20.405Z,7.7
2018-09-17T11:59:22.000Z,7.7
2018-09-17T12:00:23.588Z,7.7
2018-09-17T12:01:25.005Z,7.8
2018-09-17T12:02:26.402Z,7.8
2018-09-17T12:03:27.968Z,7.8
2018-09-17T12:04:29.552Z,7.8
2018-09-17T12:05:31.119Z,7.8
2018-09-17T12:06:32.902Z,7.9
2018-09-17T12:07:34.642Z,7.9
2018-09-17T12:08:36.218Z,7.8
2018-09-17T12:09:37.775Z,7.9
2018-09-17T12:10:39.363Z,7.8
2018-09-17T12:11:40.947Z,7.9
2018-09-17T12:12:42.537Z,7.9
2018-09-17T12:13:44.105Z,7.9
2018-09-17T12:14:45.667Z,7.9
2018-09-17T12:15:47.234Z,7.9
2018-09-17T12:16:48.799Z,7.9
2018-09-17T12:17:50.368Z,7.9
2018-09-17T12:18:51.927Z,7.8
2018-09-17T12:19:53.490Z,7.8
2018-09-17T12:20:55.058Z,7.8
2018-09-17T12:21:56.620Z,7.9
2018-09-17T12:22:58.020Z,7.8
2018-09-17T12:24:00.061Z,7.8
2018-09-17T12:25:01.525Z,7.8
2018-09-17T12:26:03.097Z,7.9
2018-09-17T12:27:04.664Z,7.9
2018-09-17T12:28:06.259Z,7.9
2018-09-17T12:29:07.917Z,7.9
2018-09-17T12:30:09.538Z,7.9
2018-09-17T12:31:11.128Z,7.9
2018-09-17T12:32:12.702Z,7.9
2018-09-17T12:33:14.279Z,7.9
2018-09-17T12:34:15.852Z,7.8
2018-09-17T12:35:17.399Z,7.8
2018-09-17T12:36:18.968Z,7.9
2018-09-17T12:37:20.545Z,7.9
2018-09-17T12:38:22.109Z,7.9
2018-09-17T12:39:23.667Z,7.9
2018-09-17T12:40:25.240Z,7.9
2018-09-17T12:41:26.666Z,7.9
2018-09-17T12:42:28.268Z,7.8
2018-09-17T12:43:29.849Z,7.9
2018-09-17T12:44:31.094Z,7.8
2018-09-17T12:45:32.657Z,7.8
2018-09-17T12:46:34.249Z,7.8
2018-09-17T12:47:35.659Z,7.8
2018-09-17T12:48:37.061Z,7.8
2018-09-17T12:49:38.643Z,7.8
2018-09-17T12:50:40.281Z,7.8
2018-09-17T12:51:41.662Z,7.8
2018-09-17T12:52:43.218Z,7.8
2018-09-17T12:53:44.787Z,7.8
2018-09-17T12:54:46.390Z,7.8
2018-09-17T12:55:47.961Z,7.7
2018-09-17T12:56:49.518Z,7.6
2018-09-17T12:57:51.078Z,7.6
2018-09-17T12:58:52.560Z,7.4
2018-09-17T12:59:54.154Z,7.3
2018-09-17T13:00:55.798Z,7.2
2018-09-17T13:01:57.415Z,7.2
2018-09-17T13:02:58.970Z,7.2
2018-09-17T13:04:00.553Z,7.2
2018-09-17T13:05:02.137Z,7.2
2018-09-17T13:06:03.718Z,7.2
2018-09-17T13:07:05.307Z,7.2
2018-09-17T13:08:06.880Z,7.2
2018-09-17T13:09:08.460Z,7.2
2018-09-17T13:10:10.027Z,7.2
2018-09-17T13:11:11.448Z,7.2
2018-09-17T13:12:13.030Z,7.2
2018-09-17T13:13:14.440Z,7.2
2018-09-17T13:14:16.021Z,7.2
2018-09-17T13:15:17.603Z,7.2
2018-09-17T13:16:19.198Z,7.2
2018-09-17T13:17:20.774Z,7.2
2018-09-17T13:18:22.350Z,7.2
2018-09-17T13:19:23.995Z,7.2
2018-09-17T13:20:25.557Z,7.2
2018-09-17T13:21:27.155Z,7.2
2018-09-17T13:22:28.558Z,7.2
2018-09-17T13:23:30.149Z,7.2
2018-09-17T13:24:31.719Z,7.2
2018-09-17T13:25:33.277Z,7.2
2018-09-17T13:26:34.696Z,7.2
2018-09-17T13:27:36.316Z,7.2
2018-09-17T13:28:37.883Z,7.2
2018-09-17T13:29:39.492Z,7.2
2018-09-17T13:30:41.082Z,7.2
2018-09-17T13:31:42.997Z,7.2
2018-09-17T13:32:44.695Z,7.2
2018-09-17T13:33:46.120Z,7.2
2018-09-17T13:34:47.728Z,7.2
2018-09-17T13:35:49.302Z,7.2
2018-09-17T13:36:50.984Z,7.2
2018-09-17T13:37:52.580Z,7.2
2018-09-17T13:38:54.159Z,7.3
2018-09-17T13:39:55.729Z,7.3
2018-09-17T13:40:57.294Z,7.3
2018-09-17T13:41:58.858Z,7.3
2018-09-17T13:43:00.536Z,7.3
2018-09-17T13:44:02.205Z,7.4
2018-09-17T13:45:03.732Z,7.4
2018-09-17T13:46:05.392Z,7.4
2018-09-17T13:47:07.213Z,7.4
2018-09-17T13:48:08.963Z,7.4
2018-09-17T13:49:10.552Z,7.5
2018-09-17T13:50:12.233Z,7.5
2018-09-17T13:51:13.864Z,7.5
2018-09-17T13:52:15.527Z,7.6
2018-09-17T13:53:17.618Z,7.6
2018-09-17T13:54:19.257Z,7.6
2018-09-17T13:55:20.705Z,7.7
2018-09-17T13:56:22.336Z,7.7
2018-09-17T13:57:24.026Z,7.7
2018-09-17T13:58:25.655Z,7.7
2018-09-17T13:59:27.286Z,7.7
2018-09-17T14:00:28.900Z,7.8
2018-09-17T14:01:30.426Z,7.8
2018-09-17T14:02:32.110Z,7.8
2018-09-17T14:03:33.717Z,7.8
2018-09-17T14:04:36.443Z,7.8
2018-09-17T14:05:37.858Z,7.8
2018-09-17T14:06:39.463Z,7.8
2018-09-17T14:07:41.087Z,7.8
2018-09-17T14:08:42.689Z,7.9
2018-09-17T14:09:44.300Z,7.8